createdAt,value
2017-11-11T00:02:27.849Z,4.40
2017-11-11T00:05:30.631Z,4.40
2017-11-11T00:08:32.570Z,4.40
2017-11-11T00:11:34.486Z,4.40
2017-11-11T00:14:36.407Z,4.40
2017-11-11T00:17:38.334Z,4.30
2017-11-11T00:20:40.324Z,4.20
2017-11-11T00:23:42.239Z,4.20
2017-11-11T00:26:45.313Z,4.10
2017-11-11T00:29:47.291Z,4.10
2017-11-11T00:32:49.236Z,4.10
2017-11-11T00:35:51.184Z,4.10
2017-11-11T00:38:53.927Z,4.10
2017-11-11T00:41:55.864Z,4.10
2017-11-11T00:44:57.779Z,4.10
2017-11-11T00:47:59.717Z,4.10
2017-11-11T00:51:01.987Z,4.10
2017-11-11T00:54:03.981Z,4.10
2017-11-11T00:57:05.990Z,4.20
2017-11-11T01:00:07.912Z,4.20
2017-11-11T01:03:09.925Z,4.20
2017-11-11T01:06:11.908Z,4.20
2017-11-11T01:09:13.913Z,4.10
2017-11-11T01:12:16.784Z,4.00
2017-11-11T01:15:18.738Z,4.10
2017-11-11T01:18:20.627Z,4.00
2017-11-11T01:21:22.867Z,4.00
2017-11-11T01:24:24.867Z,3.90
2017-11-11T01:27:27.642Z,4.00
2017-11-11T01:30:29.614Z,3.90
2017-11-11T01:33:31.789Z,4.00
2017-11-11T01:36:33.788Z,4.00
2017-11-11T01:39:35.982Z,4.10
2017-11-11T01:42:37.981Z,4.10
2017-11-11T01:45:40.954Z,4.10
2017-11-11T01:48:42.872Z,4.10
2017-11-11T01:51:45.157Z,4.20
2017-11-11T01:54:47.156Z,4.20
2017-11-11T01:57:49.827Z,4.40
2017-11-11T02:00:51.744Z,4.30
2017-11-11T02:03:54.731Z,4.50
2017-11-11T02:06:56.744Z,4.50
2017-11-11T02:09:59.448Z,4.50
2017-11-11T02:13:01.378Z,4.50
2017-11-11T02:16:03.502Z,4.60
2017-11-11T02:19:06.182Z,4.60
2017-11-11T02:22:08.098Z,4.60
2017-11-11T02:25:10.063Z,4.60
2017-11-11T02:28:12.834Z,4.50
2017-11-11T02:31:14.734Z,4.50
2017-11-11T02:34:16.929Z,4.50
2017-11-11T02:37:19.614Z,4.40
2017-11-11T02:40:21.554Z,4.40
2017-11-11T02:43:23.494Z,4.30
2017-11-11T02:46:26.650Z,4.30
2017-11-11T02:49:28.665Z,4.20
2017-11-11T02:52:30.608Z,4.20
2017-11-11T02:55:32.521Z,4.10
2017-11-11T02:58:34.721Z,4.00
2017-11-11T03:01:36.927Z,3.90
2017-11-11T03:04:39.915Z,3.80
2017-11-11T03:07:41.810Z,3.80
2017-11-11T03:10:43.779Z,3.80
2017-11-11T03:13:45.671Z,3.70
2017-11-11T03:16:47.935Z,3.70
2017-11-11T03:19:49.935Z,3.60
2017-11-11T03:22:51.903Z,3.60
2017-11-11T03:25:53.881Z,3.50
2017-11-11T03:28:55.793Z,3.60
2017-11-11T03:31:58.461Z,3.60
2017-11-11T03:35:00.475Z,3.60
2017-11-11T03:38:03.132Z,3.70
2017-11-11T03:41:05.334Z,3.70
2017-11-11T03:44:07.329Z,3.80
2017-11-11T03:47:09.249Z,3.90
2017-11-11T03:50:12.015Z,4.00
2017-11-11T03:53:13.927Z,4.00
2017-11-11T03:56:16.738Z,4.10
2017-11-11T03:59:18.991Z,4.00
2017-11-11T04:02:20.897Z,4.10
2017-11-11T04:05:23.679Z,4.20
2017-11-11T04:08:25.569Z,4.10
2017-11-11T04:11:28.494Z,4.20
2017-11-11T04:14:30.525Z,4.20
2017-11-11T04:17:32.538Z,4.20
2017-11-11T04:20:34.455Z,4.10
2017-11-11T04:23:36.494Z,4.20
2017-11-11T04:26:38.462Z,4.20
2017-11-11T04:29:40.475Z,4.20
2017-11-11T04:32:43.239Z,4.10
2017-11-11T04:35:45.428Z,4.20
2017-11-11T04:38:47.409Z,4.10
2017-11-11T04:41:49.411Z,4.10
2017-11-11T04:44:51.508Z,4.10
2017-11-11T04:47:53.783Z,4.10
2017-11-11T04:50:55.686Z,4.10
2017-11-11T04:53:58.611Z,4.20
2017-11-11T04:57:00.501Z,4.20
2017-11-11T05:00:02.733Z,4.20
2017-11-11T05:03:04.739Z,4.30
2017-11-11T05:06:06.900Z,4.30
2017-11-11T05:09:08.897Z,4.40
2017-11-11T05:12:12.638Z,4.30
2017-11-11T05:15:15.406Z,4.30
2017-11-11T05:18:17.713Z,4.30
2017-11-11T05:21:19.698Z,4.30
2017-11-11T05:24:21.987Z,4.30
2017-11-11T05:27:23.968Z,4.30
2017-11-11T05:30:25.958Z,4.30
2017-11-11T05:33:28.651Z,4.30
2017-11-11T05:36:30.913Z,4.30
2017-11-11T05:39:32.808Z,4.40
2017-11-11T05:42:34.782Z,4.30
2017-11-11T05:45:36.783Z,4.30
2017-11-11T05:48:39.061Z,4.30
2017-11-11T05:51:40.960Z,4.40
2017-11-11T05:54:42.920Z,4.40
2017-11-11T05:57:45.441Z,4.40
2017-11-11T06:00:47.432Z,4.50
2017-11-11T06:03:50.207Z,4.60
2017-11-11T06:06:52.388Z,4.60
2017-11-11T06:09:54.410Z,4.60
2017-11-11T06:12:57.361Z,4.70
2017-11-11T06:15:59.364Z,4.60
2017-11-11T06:19:01.300Z,4.70
2017-11-11T06:22:04.148Z,4.70
2017-11-11T06:25:06.130Z,4.70
2017-11-11T06:28:08.020Z,4.70
2017-11-11T06:31:09.978Z,4.70
2017-11-11T06:34:12.303Z,4.70
2017-11-11T06:37:14.266Z,4.80
2017-11-11T06:40:16.259Z,4.80
2017-11-11T06:43:18.572Z,4.80
2017-11-11T06:46:21.441Z,4.80
2017-11-11T06:49:23.450Z,4.80
2017-11-11T06:52:26.117Z,4.80
2017-11-11T06:55:28.145Z,4.80
2017-11-11T06:58:33.759Z,4.70
2017-11-11T07:01:35.701Z,4.70
2017-11-11T07:04:38.419Z,4.70
2017-11-11T07:07:40.335Z,4.60
2017-11-11T07:10:42.267Z,4.60
2017-11-11T07:13:44.191Z,4.60
2017-11-11T07:16:46.865Z,4.50
2017-11-11T07:19:48.797Z,4.50
2017-11-11T07:22:50.711Z,4.50
2017-11-11T07:25:53.027Z,4.50
2017-11-11T07:28:55.019Z,4.70
2017-11-11T07:31:58.546Z,4.90
2017-11-11T07:35:00.448Z,4.90
2017-11-11T07:38:03.226Z,5.20
2017-11-11T07:41:05.919Z,5.70
2017-11-11T07:44:07.918Z,5.70
2017-11-11T07:47:10.615Z,6.50
2017-11-11T07:50:13.396Z,7.00
2017-11-11T07:53:15.312Z,6.90
2017-11-11T07:56:18.097Z,6.80
2017-11-11T07:59:20.760Z,6.60
2017-11-11T08:02:22.680Z,6.60
2017-11-11T08:05:24.630Z,6.30
2017-11-11T08:08:26.572Z,6.10
2017-11-11T08:11:29.019Z,5.90
2017-11-11T08:14:30.986Z,5.70
2017-11-11T08:17:32.886Z,5.70
2017-11-11T08:20:34.824Z,5.60
2017-11-11T08:23:36.709Z,5.50
2017-11-11T08:26:38.635Z,5.40
2017-11-11T08:29:40.636Z,5.40
2017-11-11T08:32:43.330Z,5.80
2017-11-11T08:35:45.304Z,5.70
2017-11-11T08:38:47.303Z,6.40
2017-11-11T08:41:49.963Z,10.70
2017-11-11T08:44:51.938Z,10.70
2017-11-11T08:47:53.860Z,10.60
2017-11-11T08:50:56.715Z,9.30
2017-11-11T08:53:58.638Z,9.30
2017-11-11T08:57:00.598Z,8.80
2017-11-11T09:00:03.163Z,8.50
2017-11-11T09:03:05.171Z,8.20
2017-11-11T09:06:07.082Z,7.80
2017-11-11T09:09:09.349Z,7.50
2017-11-11T09:12:11.405Z,7.30
2017-11-11T09:15:13.722Z,7.20
2017-11-11T09:18:15.708Z,7.00
2017-11-11T09:21:18.033Z,6.80
2017-11-11T09:24:20.810Z,6.50
2017-11-11T09:27:23.397Z,6.50
2017-11-11T09:30:25.410Z,6.40
2017-11-11T09:33:27.694Z,6.40
2017-11-11T09:36:30.391Z,6.50
2017-11-11T09:39:32.657Z,6.50
2017-11-11T09:42:34.675Z,6.60
2017-11-11T09:45:37.756Z,6.70
2017-11-11T09:48:39.651Z,6.70
2017-11-11T09:51:41.935Z,6.80
2017-11-11T09:54:43.907Z,7.00
2017-11-11T09:57:46.159Z,7.20
2017-11-11T10:00:48.874Z,7.40
2017-11-11T10:03:52.140Z,7.60
2017-11-11T10:06:54.109Z,7.70
2017-11-11T10:09:56.383Z,7.70
2017-11-11T10:12:58.278Z,7.60
2017-11-11T10:16:00.561Z,7.60
2017-11-11T10:19:02.488Z,7.50
2017-11-11T10:22:04.846Z,7.60
2017-11-11T10:25:07.050Z,7.90
2017-11-11T10:28:10.169Z,8.40
2017-11-11T10:31:12.956Z,8.30
2017-11-11T10:34:16.032Z,8.20
2017-11-11T10:37:18.052Z,8.00
2017-11-11T10:40:21.140Z,7.70
2017-11-11T10:43:23.071Z,7.80
2017-11-11T10:46:25.425Z,7.90
2017-11-11T10:49:27.415Z,8.20
2017-11-11T10:52:30.527Z,8.50
2017-11-11T10:55:33.438Z,8.70
2017-11-11T10:58:36.538Z,9.10
2017-11-11T11:01:38.502Z,9.10
2017-11-11T11:04:40.827Z,9.10
2017-11-11T11:07:43.615Z,9.00
2017-11-11T11:10:45.872Z,9.00
2017-11-11T11:13:47.790Z,8.80
2017-11-11T11:16:50.884Z,8.80
2017-11-11T11:19:52.814Z,8.80
2017-11-11T11:22:55.378Z,8.70
2017-11-11T11:25:58.141Z,9.90
2017-11-11T11:29:00.479Z,9.90
2017-11-11T11:32:03.174Z,13.90
2017-11-11T11:35:06.270Z,14.20
2017-11-11T11:38:08.227Z,14.20
2017-11-11T11:41:10.514Z,13.70
2017-11-11T11:44:12.498Z,13.00
2017-11-11T11:47:14.782Z,12.30
2017-11-11T11:50:16.678Z,11.60
2017-11-11T11:53:18.969Z,11.10
2017-11-11T11:56:20.890Z,10.70
2017-11-11T11:59:23.977Z,9.60
2017-11-11T12:02:26.653Z,9.30
2017-11-11T12:05:28.922Z,9.30
2017-11-11T12:08:30.844Z,9.00
2017-11-11T12:11:33.108Z,9.00
2017-11-11T12:14:35.070Z,9.00
2017-11-11T12:17:37.388Z,9.10
2017-11-11T12:20:39.391Z,9.20
2017-11-11T12:23:42.444Z,12.10
2017-11-11T12:26:44.367Z,12.10
2017-11-11T12:29:46.658Z,14.00
2017-11-11T12:32:48.588Z,15.40
2017-11-11T12:35:50.893Z,15.00
2017-11-11T12:38:52.787Z,14.20
2017-11-11T12:41:55.095Z,13.20
2017-11-11T12:44:57.417Z,13.50
2017-11-11T12:48:00.732Z,13.40
2017-11-11T12:51:03.410Z,12.70
2017-11-11T12:54:05.683Z,12.70
2017-11-11T12:57:07.612Z,12.10
2017-11-11T13:00:10.623Z,10.70
2017-11-11T13:03:13.381Z,10.20
2017-11-11T13:06:15.627Z,10.20
2017-11-11T13:09:17.516Z,9.90
2017-11-11T13:12:19.884Z,9.70
2017-11-11T13:15:22.642Z,9.30
2017-11-11T13:18:24.896Z,9.30
2017-11-11T13:21:26.831Z,9.10
2017-11-11T13:24:29.121Z,9.00
2017-11-11T13:27:31.122Z,9.00
2017-11-11T13:30:34.499Z,9.30
2017-11-11T13:33:36.510Z,9.30
2017-11-11T13:36:38.776Z,10.00
2017-11-11T13:39:40.756Z,12.30
2017-11-11T13:42:43.071Z,13.90
2017-11-11T13:45:44.995Z,14.70
2017-11-11T13:48:47.332Z,16.10
2017-11-11T13:51:49.225Z,17.20
2017-11-11T13:54:51.594Z,18.70
2017-11-11T13:57:53.598Z,19.90
2017-11-11T14:00:57.386Z,20.90
2017-11-11T14:03:59.397Z,20.80
2017-11-11T14:07:01.797Z,19.40
2017-11-11T14:10:03.701Z,17.50
2017-11-11T14:13:06.777Z,14.50
2017-11-11T14:16:09.409Z,14.50
2017-11-11T14:19:12.509Z,12.20
2017-11-11T14:22:15.168Z,11.40
2017-11-11T14:25:17.467Z,11.40
2017-11-11T14:28:19.356Z,10.80
2017-11-11T14:31:21.654Z,10.30
2017-11-11T14:34:23.645Z,10.10
2017-11-11T14:37:26.733Z,9.60
2017-11-11T14:40:28.707Z,9.60
2017-11-11T14:43:30.934Z,9.40
2017-11-11T14:46:33.596Z,9.00
2017-11-11T14:49:35.929Z,9.00
2017-11-11T14:52:38.611Z,8.80
2017-11-11T14:55:40.906Z,8.80
2017-11-11T14:58:42.799Z,8.70
2017-11-11T15:01:45.908Z,8.30
2017-11-11T15:04:48.591Z,8.10
2017-11-11T15:07:51.678Z,7.90
2017-11-11T15:10:53.689Z,7.80
2017-11-11T15:13:55.649Z,7.70
2017-11-11T15:16:57.671Z,7.50
2017-11-11T15:20:00.774Z,7.30
2017-11-11T15:23:03.453Z,7.30
2017-11-11T15:26:07.194Z,7.20
2017-11-11T15:29:09.877Z,7.20
2017-11-11T15:32:12.168Z,7.20
2017-11-11T15:35:14.154Z,7.20
2017-11-11T15:38:17.411Z,7.10
2017-11-11T15:41:19.298Z,7.10
2017-11-11T15:44:21.428Z,7.10
2017-11-11T15:47:23.359Z,7.20
2017-11-11T15:50:25.275Z,7.30
2017-11-11T15:53:27.168Z,7.40
2017-11-11T15:56:30.284Z,7.50
2017-11-11T15:59:32.967Z,7.50
2017-11-11T16:02:35.068Z,7.50
2017-11-11T16:05:36.991Z,7.30
2017-11-11T16:08:39.014Z,7.20
2017-11-11T16:11:40.907Z,7.00
2017-11-11T16:14:42.848Z,6.90
2017-11-11T16:17:44.769Z,6.80
2017-11-11T16:20:46.953Z,6.70
2017-11-11T16:23:48.889Z,6.60
2017-11-11T16:26:51.248Z,6.50
2017-11-11T16:29:53.156Z,6.50
2017-11-11T16:32:55.848Z,6.40
2017-11-11T16:35:58.527Z,6.30
2017-11-11T16:39:00.790Z,6.30
2017-11-11T16:42:02.776Z,6.30
2017-11-11T16:45:04.720Z,6.30
2017-11-11T16:48:06.629Z,6.20
2017-11-11T16:51:08.540Z,6.20
2017-11-11T16:54:10.459Z,6.20
2017-11-11T16:57:12.406Z,6.20
2017-11-11T17:00:14.395Z,6.10
2017-11-11T17:03:16.334Z,6.00
2017-11-11T17:06:18.359Z,5.90
2017-11-11T17:09:20.315Z,5.90
2017-11-11T17:12:22.331Z,5.90
2017-11-11T17:15:24.595Z,6.10
2017-11-11T17:18:26.479Z,6.30
2017-11-11T17:21:28.872Z,6.50
2017-11-11T17:24:30.842Z,6.60
2017-11-11T17:27:32.820Z,6.50
2017-11-11T17:30:34.816Z,6.40
2017-11-11T17:33:36.791Z,6.10
2017-11-11T17:36:39.015Z,5.90
2017-11-11T17:39:42.113Z,5.50
2017-11-11T17:42:44.010Z,5.50
2017-11-11T17:45:46.774Z,5.30
2017-11-11T17:48:48.659Z,5.30
2017-11-11T17:51:50.962Z,5.30
2017-11-11T17:54:52.971Z,5.20
2017-11-11T17:57:56.034Z,5.00
2017-11-11T18:00:57.960Z,5.00
2017-11-11T18:04:00.964Z,4.90
2017-11-11T18:07:03.752Z,4.80
2017-11-11T18:10:05.823Z,4.80
2017-11-11T18:13:07.823Z,5.10
2017-11-11T18:16:10.090Z,5.30
2017-11-11T18:19:12.082Z,5.50
2017-11-11T18:22:14.184Z,5.40
2017-11-11T18:25:16.994Z,5.10
2017-11-11T18:28:19.770Z,5.00
2017-11-11T18:31:21.758Z,4.90
2017-11-11T18:34:24.034Z,4.80
2017-11-11T18:37:26.005Z,4.70
2017-11-11T18:40:27.959Z,4.50
2017-11-11T18:43:29.874Z,4.50
2017-11-11T18:46:32.162Z,4.40
2017-11-11T18:49:34.192Z,4.30
2017-11-11T18:52:36.906Z,4.20
2017-11-11T18:55:38.852Z,4.20
2017-11-11T18:58:41.055Z,4.20
2017-11-11T19:01:43.830Z,4.80
2017-11-11T19:04:46.140Z,4.80
2017-11-11T19:07:48.062Z,5.10
2017-11-11T19:10:50.099Z,5.10
2017-11-11T19:13:52.049Z,5.00
2017-11-11T19:16:53.975Z,4.90
2017-11-11T19:19:57.362Z,4.80
2017-11-11T19:22:59.377Z,4.70
2017-11-11T19:26:02.175Z,4.60
2017-11-11T19:29:05.307Z,4.40
2017-11-11T19:32:07.231Z,4.40
2017-11-11T19:35:09.554Z,4.30
2017-11-11T19:38:11.450Z,4.20
2017-11-11T19:41:14.162Z,4.00
2017-11-11T19:44:16.165Z,4.00
2017-11-11T19:47:18.203Z,3.90
2017-11-11T19:50:20.157Z,3.90
2017-11-11T19:53:22.178Z,3.80
2017-11-11T19:56:24.846Z,3.70
2017-11-11T19:59:26.866Z,3.70
2017-11-11T20:02:29.546Z,3.70
2017-11-11T20:05:31.823Z,3.70
2017-11-11T20:08:33.745Z,3.70
2017-11-11T20:11:37.381Z,4.50
2017-11-11T20:14:39.297Z,4.50
2017-11-11T20:17:41.629Z,4.70
2017-11-11T20:20:44.294Z,4.60
2017-11-11T20:23:46.614Z,4.60
2017-11-11T20:26:48.532Z,4.60
2017-11-11T20:29:50.475Z,4.50
2017-11-11T20:32:52.395Z,4.40
2017-11-11T20:35:54.456Z,4.30
2017-11-11T20:38:57.144Z,4.10
2017-11-11T20:42:00.253Z,4.00
2017-11-11T20:45:02.228Z,4.00
2017-11-11T20:48:04.528Z,4.00
2017-11-11T20:51:06.526Z,4.00
2017-11-11T20:54:08.610Z,4.00
2017-11-11T20:57:10.673Z,4.00
2017-11-11T21:00:13.790Z,3.90
2017-11-11T21:03:15.694Z,3.80
2017-11-11T21:06:18.479Z,3.80
2017-11-11T21:09:20.374Z,3.70
2017-11-11T21:12:23.570Z,3.80
2017-11-11T21:15:25.487Z,3.80
2017-11-11T21:18:27.548Z,3.90
2017-11-11T21:21:30.224Z,4.40
2017-11-11T21:24:32.384Z,4.40
2017-11-11T21:27:34.382Z,5.00
2017-11-11T21:30:36.300Z,5.30
2017-11-11T21:33:38.962Z,4.90
2017-11-11T21:36:41.274Z,4.80
2017-11-11T21:39:43.254Z,4.60
2017-11-11T21:42:45.532Z,4.40
2017-11-11T21:45:47.479Z,4.30
2017-11-11T21:48:49.777Z,4.10
2017-11-11T21:51:51.763Z,3.90
2017-11-11T21:54:53.798Z,3.80
2017-11-11T21:57:56.491Z,3.50
2017-11-11T22:00:58.399Z,3.50
2017-11-11T22:04:01.074Z,3.30
2017-11-11T22:07:03.379Z,3.30
2017-11-11T22:10:05.371Z,3.20
2017-11-11T22:13:08.172Z,3.10
2017-11-11T22:16:10.858Z,3.10
2017-11-11T22:19:12.822Z,3.10
2017-11-11T22:22:14.724Z,3.00
2017-11-11T22:25:16.650Z,3.00
2017-11-11T22:28:18.546Z,2.90
2017-11-11T22:31:20.467Z,2.90
2017-11-11T22:34:22.440Z,2.90
2017-11-11T22:37:24.674Z,2.80
2017-11-11T22:40:27.363Z,2.70
2017-11-11T22:43:29.279Z,2.70
2017-11-11T22:46:31.778Z,2.70
2017-11-11T22:49:34.106Z,2.70
2017-11-11T22:52:36.127Z,2.70
2017-11-11T22:55:38.117Z,2.80
2017-11-11T22:58:40.886Z,3.40
2017-11-11T23:01:43.207Z,3.40
2017-11-11T23:04:45.875Z,3.30
2017-11-11T23:07:47.869Z,3.30
2017-11-11T23:10:49.760Z,3.10
2017-11-11T23:13:51.777Z,3.10
2017-11-11T23:16:54.428Z,2.90
2017-11-11T23:19:56.746Z,2.90
2017-11-11T23:22:58.642Z,2.80
2017-11-11T23:26:00.614Z,2.80
2017-11-11T23:29:04.139Z,2.70
2017-11-11T23:32:06.397Z,2.70
2017-11-11T23:35:08.298Z,2.70
2017-11-11T23:38:10.550Z,2.70
2017-11-11T23:41:12.487Z,2.60
2017-11-11T23:44:14.899Z,2.60
2017-11-11T23:47:16.834Z,2.50
2017-11-11T23:50:18.856Z,2.50
2017-11-11T23:53:20.813Z,2.50
2017-11-11T23:56:22.755Z,2.50
2017-11-11T23:59:24.680Z,2.40
